Time;durP1;ratioP1;P1;durP2;ratioP2;P2;SDS_P1;SDS_P2;PMS_P1;PMS_P2;Temp;Humidity;BMP_temperature;BMP_pressure;BME280_temperature;BME280_humidity;BME280_pressure;Samples;Min_cycle;Max_cycle;Signal;HPM_P1;HPM_P2
2023/11/29 00:00:46;;;;;;;17.88;11.05;;;0.10;77.60;;;;;;4972677;28;20365;-79
2023/11/29 00:03:12;;;;;;;17.88;11.38;;;0.20;77.80;;;;;;4972193;28;20027;-78
2023/11/29 00:05:38;;;;;;;18.45;11.05;;;0.20;78.10;;;;;;4972815;28;20034;-79
2023/11/29 00:08:07;;;;;;;17.48;11.85;;;0.10;78.40;;;;;;4972921;28;20028;-79
2023/11/29 00:10:32;;;;;;;19.15;11.63;;;0.10;78.60;;;;;;4972722;28;20420;-77
2023/11/29 00:12:58;;;;;;;18.85;11.70;;;0.10;78.70;;;;;;4972568;28;20081;-78
2023/11/29 00:15:23;;;;;;;19.13;11.65;;;0.00;78.70;;;;;;4972819;28;20027;-78
2023/11/29 00:17:49;;;;;;;18.15;11.23;;;0.00;78.90;;;;;;4972547;28;20058;-77
2023/11/29 00:20:15;;;;;;;18.95;10.43;;;0.00;79.00;;;;;;4972666;28;20133;-78
2023/11/29 00:22:41;;;;;;;18.98;12.18;;;0.00;79.10;;;;;;4972659;28;20519;-78
2023/11/29 00:25:08;;;;;;;23.23;12.80;;;0.00;79.30;;;;;;4972695;28;20027;-77
2023/11/29 00:27:34;;;;;;;21.00;13.30;;;0.00;79.40;;;;;;4972501;28;20027;-79
2023/11/29 00:29:59;;;;;;;21.38;13.00;;;0.00;79.60;;;;;;4972320;28;20023;-78
2023/11/29 00:32:25;;;;;;;19.90;13.52;;;0.00;79.40;;;;;;4972465;28;20162;-77
2023/11/29 00:34:50;;;;;;;21.70;13.88;;;0.00;79.40;;;;;;4972497;28;20497;-78
2023/11/29 00:37:16;;;;;;;18.48;12.10;;;0.10;80.30;;;;;;4972549;28;20110;-78
2023/11/29 00:39:41;;;;;;;19.55;11.88;;;0.00;79.20;;;;;;4972267;28;20494;-78
2023/11/29 00:42:07;;;;;;;17.20;10.73;;;0.00;79.00;;;;;;4972515;28;20023;-77
2023/11/29 00:44:33;;;;;;;17.88;10.95;;;0.00;79.10;;;;;;4973611;28;20516;-77
2023/11/29 00:46:58;;;;;;;18.23;12.38;;;-0.10;79.10;;;;;;4975950;28;20019;-77
2023/11/29 00:49:24;;;;;;;19.83;12.30;;;-0.20;79.10;;;;;;4975913;28;20527;-76
2023/11/29 00:51:50;;;;;;;18.23;12.25;;;-0.30;79.10;;;;;;4975618;28;20031;-76
2023/11/29 00:54:16;;;;;;;16.83;11.25;;;-0.30;79.40;;;;;;4976116;28;20027;-77
2023/11/29 00:56:41;;;;;;;17.75;10.77;;;-0.30;79.60;;;;;;4976015;28;20027;-79
2023/11/29 00:59:07;;;;;;;17.73;10.65;;;-0.30;79.70;;;;;;4975699;28;20029;-76
2023/11/29 01:01:32;;;;;;;22.38;12.48;;;-0.30;79.90;;;;;;4975907;28;20034;-77
2023/11/29 01:04:00;;;;;;;16.73;12.20;;;-0.30;79.90;;;;;;4975688;28;20114;-76
2023/11/29 01:06:25;;;;;;;17.83;11.75;;;-0.30;79.90;;;;;;4975639;28;20117;-76
2023/11/29 01:08:51;;;;;;;19.83;11.80;;;-0.30;80.00;;;;;;4975469;28;20117;-77
2023/11/29 01:11:18;;;;;;;16.85;11.27;;;-0.30;80.00;;;;;;4975758;28;20022;-77
2023/11/29 01:13:43;;;;;;;16.45;10.57;;;-0.30;80.00;;;;;;4975213;28;20042;-77
2023/11/29 01:16:11;;;;;;;17.95;10.23;;;-0.30;80.00;;;;;;4975546;28;20038;-76
2023/11/29 01:18:36;;;;;;;17.33;11.75;;;-0.30;79.90;;;;;;4975567;28;20027;-77
2023/11/29 01:21:02;;;;;;;17.15;11.57;;;-0.30;80.00;;;;;;4975525;28;20034;-76
2023/11/29 01:23:28;;;;;;;19.52;11.55;;;-0.40;80.00;;;;;;4975527;28;20569;-76
2023/11/29 01:25:53;;;;;;;20.70;12.68;;;-0.40;80.00;;;;;;4975510;28;20097;-78
2023/11/29 01:28:19;;;;;;;17.80;11.38;;;-0.40;80.20;;;;;;4975471;28;20077;-77
2023/11/29 01:30:44;;;;;;;18.88;12.00;;;-0.40;80.30;;;;;;4975255;28;20456;-77
2023/11/29 01:33:10;;;;;;;17.10;11.25;;;-0.40;80.20;;;;;;4974490;28;20380;-77
2023/11/29 01:35:35;;;;;;;16.20;11.25;;;-0.50;80.20;;;;;;4975293;28;20023;-79
2023/11/29 01:38:01;;;;;;;18.08;11.00;;;-0.50;80.30;;;;;;4975268;28;20054;-78
2023/11/29 01:40:26;;;;;;;17.98;11.05;;;-0.50;80.40;;;;;;4975134;28;20547;-79
2023/11/29 01:42:52;;;;;;;16.05;10.05;;;-0.60;80.50;;;;;;4975199;28;20074;-80
2023/11/29 01:45:18;;;;;;;17.17;9.95;;;-0.60;80.70;;;;;;4974824;28;20035;-79
2023/11/29 01:47:43;;;;;;;18.92;11.32;;;-0.60;80.80;;;;;;4975039;28;20068;-80
2023/11/29 01:50:12;;;;;;;19.85;10.73;;;-0.60;80.80;;;;;;4975024;28;20069;-78
2023/11/29 01:52:38;;;;;;;17.52;11.05;;;-0.60;81.00;;;;;;4974892;28;20066;-80
2023/11/29 01:55:08;;;;;;;16.63;9.68;;;-0.50;81.10;;;;;;4974878;28;20476;-80
2023/11/29 01:57:34;;;;;;;20.90;10.93;;;-0.60;80.80;;;;;;4974298;28;20034;-79
2023/11/29 02:00:00;;;;;;;15.63;9.80;;;-0.60;80.80;;;;;;4974783;28;20492;-79
2023/11/29 02:02:25;;;;;;;19.80;10.23;;;-0.60;80.90;;;;;;4974791;28;20034;-79
2023/11/29 02:04:51;;;;;;;16.58;8.95;;;-0.60;80.80;;;;;;4974769;28;20026;-81
2023/11/29 02:07:17;;;;;;;16.23;8.52;;;-0.60;80.70;;;;;;4974779;28;20073;-79
2023/11/29 02:09:43;;;;;;;14.98;8.57;;;-0.70;80.70;;;;;;4975656;28;20054;-80
2023/11/29 02:12:09;;;;;;;14.43;8.77;;;-0.60;80.80;;;;;;4974403;28;20059;-80
2023/11/29 02:14:41;;;;;;;15.40;9.75;;;-0.70;80.70;;;;;;4974683;28;20115;-78
2023/11/29 02:17:08;;;;;;;14.68;8.45;;;-0.70;80.80;;;;;;4974627;28;20082;-77
2023/11/29 02:19:34;;;;;;;14.13;8.63;;;-0.60;80.80;;;;;;4975552;28;20430;-79
2023/11/29 02:22:00;;;;;;;16.52;8.50;;;-0.70;81.60;;;;;;4974497;28;20033;-77
2023/11/29 02:24:32;;;;;;;18.08;9.35;;;-0.70;80.90;;;;;;4974569;28;20090;-77
2023/11/29 02:26:58;;;;;;;15.15;8.88;;;-0.70;81.00;;;;;;4974370;28;20123;-79
2023/11/29 02:29:25;;;;;;;18.60;9.63;;;-0.70;81.00;;;;;;4974347;28;20119;-78
2023/11/29 02:31:50;;;;;;;14.90;8.30;;;-0.70;80.80;;;;;;4974282;28;20034;-80
2023/11/29 02:34:16;;;;;;;14.65;8.48;;;-0.70;80.90;;;;;;4974266;28;20534;-79
2023/11/29 02:36:42;;;;;;;13.57;8.20;;;-0.70;80.80;;;;;;4974044;28;20023;-78
2023/11/29 02:39:09;;;;;;;13.88;9.25;;;-0.70;80.70;;;;;;4974091;28;20030;-80
2023/11/29 02:41:38;;;;;;;16.10;8.68;;;-0.80;80.60;;;;;;4973843;28;20030;-78
2023/11/29 02:44:04;;;;;;;16.55;9.63;;;-0.70;80.90;;;;;;4974120;28;20117;-79
2023/11/29 02:46:30;;;;;;;13.85;8.15;;;-0.70;80.90;;;;;;4974027;28;20429;-81
2023/11/29 02:48:57;;;;;;;13.70;8.30;;;-0.80;80.80;;;;;;4974037;28;20037;-81
2023/11/29 02:51:23;;;;;;;16.00;8.73;;;-0.80;80.90;;;;;;4973640;28;20058;-81
2023/11/29 02:53:48;;;;;;;14.85;9.65;;;-0.80;81.00;;;;;;4971056;28;20140;-80
2023/11/29 02:56:14;;;;;;;17.30;10.00;;;-0.80;81.00;;;;;;4954510;28;20034;-82
2023/11/29 02:58:39;;;;;;;15.60;9.35;;;-0.80;81.10;;;;;;4954824;29;20493;-83
2023/11/29 03:01:05;;;;;;;15.68;8.95;;;-0.80;81.10;;;;;;4954575;29;20027;-83
2023/11/29 03:03:31;;;;;;;16.15;9.05;;;-0.80;81.10;;;;;;4954543;29;20054;-82
2023/11/29 03:05:56;;;;;;;15.68;9.68;;;-0.80;81.00;;;;;;4954477;29;20027;-82
2023/11/29 03:08:22;;;;;;;14.02;9.43;;;-0.80;81.20;;;;;;4953332;28;20106;-78
2023/11/29 03:10:47;;;;;;;15.15;9.30;;;-0.80;81.00;;;;;;4954257;29;20082;-77
2023/11/29 03:13:13;;;;;;;17.13;10.27;;;-0.90;81.00;;;;;;4953969;29;20106;-77
2023/11/29 03:15:39;;;;;;;13.50;8.77;;;-0.80;81.10;;;;;;4954217;29;20027;-77
2023/11/29 03:18:04;;;;;;;14.65;9.38;;;-0.90;82.00;;;;;;4954266;29;20027;-77
2023/11/29 03:20:30;;;;;;;14.93;9.85;;;-0.90;81.30;;;;;;4954142;29;20114;-77
2023/11/29 03:22:55;;;;;;;16.10;9.70;;;-1.00;81.30;;;;;;4954280;29;20034;-77
2023/11/29 03:25:21;;;;;;;16.58;10.20;;;-1.00;81.50;;;;;;4954130;29;20019;-77
2023/11/29 03:27:47;;;;;;;17.27;10.57;;;-1.00;81.50;;;;;;4954096;29;20034;-77
2023/11/29 03:30:13;;;;;;;16.20;9.73;;;-0.90;81.70;;;;;;4953982;29;20074;-77
2023/11/29 03:32:38;;;;;;;15.30;9.90;;;-0.90;81.30;;;;;;4953778;29;20055;-76
2023/11/29 03:35:04;;;;;;;14.30;8.85;;;-1.00;81.20;;;;;;4953766;29;20469;-76
2023/11/29 03:37:29;;;;;;;15.20;9.15;;;-0.90;81.40;;;;;;4953804;29;20480;-77
2023/11/29 03:39:55;;;;;;;14.85;8.85;;;-1.00;81.40;;;;;;4953883;29;20031;-77
2023/11/29 03:42:21;;;;;;;16.30;9.85;;;-0.90;81.50;;;;;;4953637;29;20086;-77
2023/11/29 03:44:46;;;;;;;13.20;8.77;;;-0.90;81.10;;;;;;4953737;29;20046;-79
2023/11/29 03:47:12;;;;;;;14.15;8.07;;;-0.90;80.90;;;;;;4953640;29;20086;-80
2023/11/29 03:49:38;;;;;;;16.65;9.95;;;-1.00;80.60;;;;;;4955003;29;20108;-79
2023/11/29 03:52:05;;;;;;;15.60;8.38;;;-1.00;80.60;;;;;;4954822;29;20115;-79
2023/11/29 03:54:31;;;;;;;16.60;8.70;;;-1.10;80.90;;;;;;4953607;29;20475;-80
2023/11/29 03:56:56;;;;;;;18.10;8.50;;;-1.00;81.00;;;;;;4953370;29;20035;-80
2023/11/29 03:59:22;;;;;;;13.75;8.00;;;-1.10;81.00;;;;;;4954475;29;20031;-83
2023/11/29 04:01:48;;;;;;;12.02;7.80;;;-1.10;81.10;;;;;;4953647;29;20043;-80
2023/11/29 04:04:13;;;;;;;14.43;7.95;;;-1.00;81.90;;;;;;4953500;29;20027;-82
2023/11/29 04:06:39;;;;;;;15.20;8.02;;;-1.00;81.00;;;;;;4953630;29;20031;-81
2023/11/29 04:09:04;;;;;;;11.20;6.18;;;-0.90;81.00;;;;;;4953535;29;20028;-81
2023/11/29 04:11:30;;;;;;;13.88;6.95;;;-1.00;80.40;;;;;;4953579;29;20023;-80
2023/11/29 04:13:56;;;;;;;11.23;6.60;;;-0.90;81.20;;;;;;4953289;29;20412;-80
2023/11/29 04:16:29;;;;;;;10.13;6.20;;;-0.90;80.40;;;;;;4937577;29;20063;-80
2023/11/29 04:18:55;;;;;;;9.20;6.00;;;-0.90;80.10;;;;;;4953787;28;20031;-78
2023/11/29 04:21:26;;;;;;;11.52;7.55;;;-0.90;80.00;;;;;;4957366;29;20023;-80
2023/11/29 04:23:53;;;;;;;10.77;7.05;;;-0.90;79.70;;;;;;4957272;29;20039;-81
2023/11/29 04:26:38;;;;;;;10.88;7.55;;;-0.80;79.60;;;;;;4957288;29;20023;-81
2023/11/29 04:29:09;;;;;;;11.55;7.38;;;-0.80;80.50;;;;;;4957321;29;20025;-80
2023/11/29 04:31:36;;;;;;;11.07;6.50;;;-0.80;79.50;;;;;;4957017;29;20093;-80
2023/11/29 04:34:02;;;;;;;8.43;6.05;;;-0.70;79.40;;;;;;4956510;29;20042;-81
2023/11/29 04:36:28;;;;;;;7.85;5.70;;;-0.70;78.80;;;;;;4956949;29;20024;-80
2023/11/29 04:38:54;;;;;;;8.65;5.97;;;-0.70;77.50;;;;;;4941232;29;20031;-81
2023/11/29 04:41:21;;;;;;;8.98;5.90;;;-0.70;77.50;;;;;;4956734;29;20030;-79
2023/11/29 04:43:47;;;;;;;7.28;4.95;;;-0.60;77.30;;;;;;4957654;28;20554;-80
2023/11/29 04:46:13;;;;;;;5.15;4.18;;;-0.60;76.90;;;;;;4956927;28;20027;-81
2023/11/29 04:48:38;;;;;;;4.68;3.33;;;-0.60;75.30;;;;;;4968195;28;20034;-80
2023/11/29 04:51:04;;;;;;;5.00;3.55;;;-0.50;74.30;;;;;;4975907;28;20113;-79
2023/11/29 04:53:30;;;;;;;4.97;3.70;;;-0.50;74.00;;;;;;4975507;28;20038;-78
2023/11/29 04:55:56;;;;;;;5.45;4.07;;;-0.40;73.90;;;;;;4975678;28;20038;-80
2023/11/29 04:58:23;;;;;;;5.03;3.40;;;-0.40;73.60;;;;;;4975918;28;20031;-80
2023/11/29 05:00:49;;;;;;;5.30;3.92;;;-0.40;72.70;;;;;;4975551;28;20030;-80
2023/11/29 05:03:15;;;;;;;4.47;3.78;;;-0.30;73.00;;;;;;4975454;28;20554;-80
2023/11/29 05:05:42;;;;;;;5.22;4.13;;;-0.30;73.10;;;;;;4975690;28;20161;-78
2023/11/29 05:08:08;;;;;;;4.90;3.83;;;-0.20;72.30;;;;;;4975927;28;20031;-80
2023/11/29 05:10:33;;;;;;;4.68;3.45;;;-0.20;72.00;;;;;;4975825;28;20054;-80
2023/11/29 05:12:59;;;;;;;5.35;3.90;;;-0.10;72.00;;;;;;4975504;28;20593;-80
2023/11/29 05:15:24;;;;;;;4.10;3.58;;;-0.10;71.80;;;;;;4975716;28;20037;-79
2023/11/29 05:17:50;;;;;;;5.30;4.05;;;-0.10;71.50;;;;;;4975615;28;20075;-79
2023/11/29 05:20:16;;;;;;;4.57;3.63;;;-0.10;71.80;;;;;;4975748;28;20034;-80
2023/11/29 05:22:41;;;;;;;6.40;4.03;;;0.00;71.90;;;;;;4975654;28;20027;-77
2023/11/29 05:25:08;;;;;;;6.38;4.32;;;-0.10;72.30;;;;;;4975410;28;20026;-77
2023/11/29 05:27:34;;;;;;;5.13;3.78;;;-0.20;72.90;;;;;;4975527;28;20030;-76
2023/11/29 05:30:00;;;;;;;4.78;3.72;;;-0.10;73.70;;;;;;4975345;28;20412;-77
2023/11/29 05:32:26;;;;;;;7.00;4.82;;;-0.10;74.30;;;;;;4974366;28;20058;-77
2023/11/29 05:34:51;;;;;;;6.05;3.78;;;0.00;74.60;;;;;;4975220;28;20031;-76
2023/11/29 05:37:17;;;;;;;4.90;3.80;;;0.00;74.60;;;;;;4975442;28;20027;-77
2023/11/29 05:39:42;;;;;;;5.63;3.80;;;0.10;74.60;;;;;;4975455;28;20436;-77
2023/11/29 05:42:08;;;;;;;6.72;4.63;;;0.10;74.50;;;;;;4975288;28;20054;-77
2023/11/29 05:44:34;;;;;;;9.50;5.40;;;0.10;74.70;;;;;;4975317;28;20022;-77
2023/11/29 05:47:01;;;;;;;5.78;4.03;;;0.10;75.10;;;;;;4975201;28;20031;-78
2023/11/29 05:49:27;;;;;;;6.10;4.72;;;0.10;75.10;;;;;;4975235;28;20031;-78
2023/11/29 05:51:53;;;;;;;6.78;4.63;;;0.10;76.10;;;;;;4975053;28;20027;-78
2023/11/29 05:54:19;;;;;;;5.88;4.63;;;0.20;75.20;;;;;;4975134;28;20066;-78
2023/11/29 05:56:45;;;;;;;9.43;4.50;;;0.20;75.00;;;;;;4975083;28;20049;-79
2023/11/29 05:59:14;;;;;;;6.00;4.30;;;0.20;74.70;;;;;;4974798;28;20479;-78
2023/11/29 06:01:40;;;;;;;6.45;4.40;;;0.30;74.30;;;;;;4975028;28;20124;-78
2023/11/29 06:04:06;;;;;;;5.32;3.60;;;0.30;73.20;;;;;;4974996;28;20030;-77
2023/11/29 06:06:32;;;;;;;5.95;4.70;;;0.30;72.20;;;;;;4976001;28;20154;-77
2023/11/29 06:08:59;;;;;;;4.57;3.97;;;0.40;70.70;;;;;;4974906;28;20022;-77
2023/11/29 06:11:26;;;;;;;4.10;3.35;;;0.30;69.60;;;;;;4974966;28;20027;-77
2023/11/29 06:13:52;;;;;;;4.45;3.60;;;0.20;69.00;;;;;;4974101;28;20411;-76
2023/11/29 06:16:18;;;;;;;3.60;3.15;;;0.20;69.40;;;;;;4974805;28;20495;-77
2023/11/29 06:18:44;;;;;;;7.60;4.05;;;0.30;69.90;;;;;;4974613;28;20035;-78
2023/11/29 06:21:09;;;;;;;4.63;3.33;;;0.20;69.80;;;;;;4974477;28;20081;-78
2023/11/29 06:23:36;;;;;;;5.80;4.15;;;0.30;70.30;;;;;;4974226;28;20051;-79
2023/11/29 06:26:04;;;;;;;4.40;3.50;;;0.30;69.90;;;;;;4974300;28;20113;-78
2023/11/29 06:28:30;;;;;;;5.35;3.55;;;0.30;69.50;;;;;;4974239;28;20101;-78
2023/11/29 06:30:56;;;;;;;4.95;3.45;;;0.30;70.00;;;;;;4973656;28;20023;-81
2023/11/29 06:33:21;;;;;;;4.57;3.53;;;0.30;70.00;;;;;;4974015;28;20038;-80
2023/11/29 06:35:47;;;;;;;3.20;2.83;;;0.30;69.80;;;;;;4973986;28;20019;-79
2023/11/29 06:38:13;;;;;;;5.80;2.90;;;0.30;70.00;;;;;;4973496;28;20031;-77
2023/11/29 06:40:39;;;;;;;4.32;3.20;;;0.30;70.30;;;;;;4972813;28;20110;-78
2023/11/29 06:43:05;;;;;;;4.03;2.70;;;0.30;69.90;;;;;;4974949;28;20019;-79
2023/11/29 06:45:30;;;;;;;6.22;3.30;;;0.30;68.70;;;;;;4974068;28;20081;-76
2023/11/29 06:47:56;;;;;;;4.13;2.85;;;0.30;68.60;;;;;;4974867;28;20038;-76
2023/11/29 06:50:22;;;;;;;5.00;2.88;;;0.30;68.00;;;;;;4973838;28;20027;-76
2023/11/29 06:52:47;;;;;;;5.00;3.13;;;0.20;68.70;;;;;;4975067;28;20038;-78
2023/11/29 06:55:13;;;;;;;5.15;3.47;;;0.30;68.60;;;;;;4973856;28;20026;-77
2023/11/29 06:57:39;;;;;;;4.25;2.97;;;0.20;69.00;;;;;;4975002;28;20050;-80
2023/11/29 07:00:10;;;;;;;6.00;3.33;;;0.20;68.80;;;;;;4973697;28;20030;-75
2023/11/29 07:02:39;;;;;;;4.10;2.55;;;0.20;71.30;;;;;;4973647;28;20026;-78
2023/11/29 07:05:06;;;;;;;3.63;3.00;;;0.20;67.80;;;;;;4973142;28;20023;-79
2023/11/29 07:07:32;;;;;;;4.03;3.15;;;0.30;66.40;;;;;;4974674;28;20027;-77
2023/11/29 07:10:01;;;;;;;9.15;5.00;;;0.30;67.10;;;;;;4974227;28;20407;-76
2023/11/29 07:12:26;;;;;;;8.40;5.18;;;0.90;86.40;;;;;;4973522;28;20054;-78
2023/11/29 07:14:53;;;;;;;4.35;3.60;;;1.90;90.40;;;;;;4973770;28;20027;-76
2023/11/29 07:17:19;;;;;;;4.65;2.78;;;2.40;83.20;;;;;;4973585;28;20026;-77
2023/11/29 07:19:49;;;;;;;3.72;3.00;;;2.60;74.30;;;;;;4973566;28;20023;-80
2023/11/29 07:22:14;;;;;;;3.65;2.47;;;2.90;71.10;;;;;;4973422;28;20080;-82
2023/11/29 07:24:42;;;;;;;3.22;2.35;;;3.00;65.20;;;;;;4972887;28;20462;-78
2023/11/29 07:27:08;;;;;;;2.70;2.05;;;3.00;64.00;;;;;;4973255;28;20045;-80
2023/11/29 07:29:34;;;;;;;2.70;2.45;;;3.30;65.40;;;;;;4973486;28;20027;-74
2023/11/29 07:31:59;;;;;;;4.15;2.50;;;3.50;62.30;;;;;;4973116;28;20037;-74
2023/11/29 07:34:25;;;;;;;3.33;2.30;;;3.30;60.80;;;;;;4972973;28;20026;-74
2023/11/29 07:36:52;;;;;;;2.50;2.08;;;3.10;59.10;;;;;;4973338;28;20384;-75
2023/11/29 07:39:21;;;;;;;2.30;2.10;;;2.80;57.90;;;;;;4973132;28;20060;-75
2023/11/29 07:41:50;;;;;;;2.03;1.90;;;2.60;58.50;;;;;;4973288;28;20114;-73
2023/11/29 07:44:16;;;;;;;2.50;2.10;;;2.40;59.20;;;;;;4974318;28;20484;-75
2023/11/29 07:46:42;;;;;;;3.67;2.42;;;2.20;59.60;;;;;;4973109;28;20031;-74
2023/11/29 07:49:12;;;;;;;2.90;2.45;;;2.20;60.00;;;;;;4972896;28;20041;-74
2023/11/29 07:51:38;;;;;;;3.00;2.58;;;1.90;60.10;;;;;;4972679;28;20399;-75
2023/11/29 07:54:06;;;;;;;2.53;2.33;;;1.80;61.00;;;;;;4973474;28;20066;-76
2023/11/29 07:56:31;;;;;;;2.55;2.03;;;1.70;61.70;;;;;;4972511;28;20049;-75
2023/11/29 07:58:58;;;;;;;3.35;2.78;;;1.70;62.20;;;;;;4972807;28;20059;-77
2023/11/29 08:01:23;;;;;;;3.33;2.60;;;1.70;62.60;;;;;;4972514;28;20023;-76
2023/11/29 08:03:49;;;;;;;3.35;2.58;;;1.70;62.40;;;;;;4972862;28;20030;-76
2023/11/29 08:06:16;;;;;;;2.47;2.28;;;1.70;62.40;;;;;;4972107;28;20027;-76
2023/11/29 08:08:42;;;;;;;2.28;1.98;;;1.80;62.00;;;;;;4972841;28;20518;-77
2023/11/29 08:11:07;;;;;;;1.92;1.73;;;1.70;60.00;;;;;;4974139;28;20031;-76
2023/11/29 08:13:33;;;;;;;3.22;2.58;;;1.60;60.10;;;;;;4972622;28;20172;-76
2023/11/29 08:15:58;;;;;;;5.18;2.83;;;1.40;60.60;;;;;;4972819;28;20019;-77
2023/11/29 08:18:24;;;;;;;4.00;2.97;;;1.40;61.50;;;;;;4972869;28;20112;-75
2023/11/29 08:20:52;;;;;;;2.90;2.40;;;1.40;62.50;;;;;;4972811;28;20034;-76
2023/11/29 08:23:17;;;;;;;3.80;2.40;;;1.30;61.60;;;;;;4972207;28;20066;-76
2023/11/29 08:25:44;;;;;;;3.45;2.45;;;1.30;62.60;;;;;;4972414;28;20113;-75
2023/11/29 08:28:10;;;;;;;2.22;2.03;;;1.20;63.40;;;;;;4972582;28;20031;-76
2023/11/29 08:30:36;;;;;;;3.10;2.42;;;1.20;62.90;;;;;;4972555;28;20042;-76
2023/11/29 08:33:02;;;;;;;3.22;2.55;;;1.20;63.10;;;;;;4973514;28;20117;-77
2023/11/29 08:35:27;;;;;;;3.25;2.20;;;1.30;63.60;;;;;;4972631;28;20050;-76
2023/11/29 08:37:53;;;;;;;2.17;1.88;;;1.40;63.90;;;;;;4972574;28;20490;-76
2023/11/29 08:40:19;;;;;;;2.47;1.90;;;1.40;63.10;;;;;;4972126;28;20019;-76
2023/11/29 08:42:45;;;;;;;4.68;2.20;;;1.50;62.80;;;;;;4972279;28;20035;-76
2023/11/29 08:45:11;;;;;;;3.70;2.88;;;1.60;62.80;;;;;;4972100;28;20085;-75
2023/11/29 08:47:37;;;;;;;3.20;2.45;;;1.60;62.50;;;;;;4971971;28;20026;-76
2023/11/29 08:50:05;;;;;;;3.38;2.92;;;1.70;62.60;;;;;;4973178;28;20038;-76
2023/11/29 08:52:31;;;;;;;3.50;2.42;;;1.60;62.30;;;;;;4972201;28;20027;-75
2023/11/29 08:54:56;;;;;;;3.35;2.88;;;1.60;63.20;;;;;;4972303;28;20034;-75
2023/11/29 08:57:23;;;;;;;3.13;2.70;;;1.70;63.40;;;;;;4972116;28;20114;-75
2023/11/29 08:59:52;;;;;;;3.45;2.63;;;1.70;64.10;;;;;;4972132;28;20033;-76
2023/11/29 09:02:20;;;;;;;2.15;1.90;;;1.70;62.00;;;;;;4972343;28;20133;-78
2023/11/29 09:04:45;;;;;;;2.75;2.15;;;1.70;62.30;;;;;;4972402;28;20034;-75
2023/11/29 09:07:11;;;;;;;2.70;2.25;;;1.70;62.70;;;;;;4975661;28;20026;-75
2023/11/29 09:09:37;;;;;;;2.95;2.10;;;1.80;62.40;;;;;;4975480;28;20037;-74
2023/11/29 09:12:03;;;;;;;2.65;2.33;;;1.80;61.60;;;;;;4978344;28;20042;-74
2023/11/29 09:14:29;;;;;;;3.28;2.15;;;1.90;62.00;;;;;;4978914;28;20113;-74
2023/11/29 09:16:56;;;;;;;4.45;2.35;;;2.00;62.20;;;;;;4978583;28;20165;-74
2023/11/29 09:19:22;;;;;;;2.90;2.13;;;2.00;61.30;;;;;;4978457;28;20040;-74
2023/11/29 09:21:48;;;;;;;1.67;1.58;;;2.10;60.40;;;;;;4995977;28;20097;-74
2023/11/29 09:24:14;;;;;;;2.28;2.08;;;2.10;59.20;;;;;;4978647;28;20121;-74
2023/11/29 09:26:40;;;;;;;3.47;2.92;;;2.20;59.60;;;;;;4978611;28;20400;-73
2023/11/29 09:29:06;;;;;;;3.08;2.13;;;2.30;60.40;;;;;;4978345;28;20022;-74
2023/11/29 09:31:31;;;;;;;6.20;2.63;;;2.50;59.60;;;;;;4978262;28;20110;-74
2023/11/29 09:33:57;;;;;;;3.05;2.40;;;2.60;58.90;;;;;;4978156;28;20030;-74
2023/11/29 09:36:23;;;;;;;3.25;2.83;;;2.70;57.80;;;;;;4978467;28;20360;-74
2023/11/29 09:38:49;;;;;;;2.50;2.30;;;2.80;58.00;;;;;;4978292;28;20030;-74
2023/11/29 09:41:16;;;;;;;6.65;2.92;;;2.90;57.60;;;;;;4978284;28;20471;-75
2023/11/29 09:43:44;;;;;;;6.32;3.80;;;3.40;56.00;;;;;;4978086;28;20034;-74
2023/11/29 09:46:10;;;;;;;4.55;3.58;;;3.80;53.50;;;;;;4977841;28;20054;-73
2023/11/29 09:48:36;;;;;;;5.38;2.80;;;4.10;53.90;;;;;;4977769;28;20061;-74
2023/11/29 09:51:02;;;;;;;5.28;2.13;;;4.40;52.80;;;;;;4977907;28;20030;-76
2023/11/29 09:53:28;;;;;;;2.30;2.10;;;4.60;51.50;;;;;;4977879;28;20039;-76
2023/11/29 09:55:56;;;;;;;4.68;2.30;;;4.80;49.20;;;;;;4978014;28;20018;-77
2023/11/29 09:58:23;;;;;;;1.65;1.55;;;4.80;48.00;;;;;;4978252;28;20102;-77
2023/11/29 10:00:49;;;;;;;3.55;1.75;;;5.00;47.00;;;;;;4977985;28;20022;-76
2023/11/29 10:03:15;;;;;;;2.50;2.03;;;5.30;47.20;;;;;;4977788;28;20032;-76
2023/11/29 10:05:47;;;;;;;2.00;1.80;;;5.70;45.60;;;;;;4977894;28;20026;-77
2023/11/29 10:08:19;;;;;;;2.65;2.28;;;5.90;44.10;;;;;;4978486;28;20033;-76
2023/11/29 10:10:45;;;;;;;2.05;1.85;;;6.10;43.30;;;;;;4982015;28;20073;-77
2023/11/29 10:13:12;;;;;;;2.70;1.80;;;6.40;43.10;;;;;;4998315;28;20121;-78
2023/11/29 10:15:54;;;;;;;2.42;1.83;;;6.50;41.90;;;;;;4994840;28;20065;-77
2023/11/29 10:18:20;;;;;;;2.45;2.25;;;6.70;40.70;;;;;;4977340;28;20475;-77
2023/11/29 10:20:46;;;;;;;1.77;1.67;;;7.00;41.10;;;;;;4977266;28;20089;-77
2023/11/29 10:23:13;;;;;;;3.53;2.20;;;7.20;39.70;;;;;;4977526;28;20026;-77
2023/11/29 10:25:39;;;;;;;2.47;1.90;;;7.20;38.60;;;;;;4977576;28;20045;-75
2023/11/29 10:28:05;;;;;;;1.67;1.58;;;7.40;39.80;;;;;;4977599;28;20053;-75
2023/11/29 10:30:30;;;;;;;2.92;2.63;;;7.40;38.60;;;;;;4977436;28;20062;-76
2023/11/29 10:32:56;;;;;;;3.05;2.25;;;7.60;39.80;;;;;;4977442;28;20034;-76
2023/11/29 10:35:24;;;;;;;2.25;2.05;;;7.80;40.40;;;;;;4977136;28;20060;-76
2023/11/29 10:38:00;;;;;;;5.28;2.00;;;8.10;39.20;;;;;;4994669;28;20038;-76
2023/11/29 10:40:26;;;;;;;2.40;2.20;;;8.10;38.60;;;;;;4994578;28;20036;-76
2023/11/29 10:42:54;;;;;;;2.45;1.58;;;7.90;38.60;;;;;;4976967;28;20125;-76
2023/11/29 10:45:20;;;;;;;1.65;1.42;;;7.50;38.30;;;;;;4977414;28;20606;-76
2023/11/29 10:48:02;;;;;;;2.55;1.60;;;7.10;37.60;;;;;;4977838;28;20221;-75
2023/11/29 10:50:30;;;;;;;2.08;1.88;;;6.70;38.40;;;;;;4976993;28;20117;-76
2023/11/29 10:52:56;;;;;;;2.20;1.65;;;6.00;41.50;;;;;;4976518;28;20034;-75
2023/11/29 10:55:23;;;;;;;2.47;2.15;;;5.80;43.10;;;;;;4976722;28;20089;-75
2023/11/29 10:57:57;;;;;;;3.67;2.85;;;5.40;44.90;;;;;;4976961;28;20394;-75
2023/11/29 11:00:26;;;;;;;2.60;2.00;;;4.90;46.90;;;;;;4976594;28;20435;-75
2023/11/29 11:02:52;;;;;;;2.47;2.28;;;4.50;48.40;;;;;;4976677;28;20450;-76
2023/11/29 11:05:21;;;;;;;4.45;2.42;;;4.20;50.70;;;;;;4976665;28;20019;-76
2023/11/29 11:07:48;;;;;;;3.30;2.22;;;4.20;51.20;;;;;;4976729;28;20057;-75
2023/11/29 11:10:17;;;;;;;2.55;2.20;;;4.10;51.10;;;;;;4976663;28;20029;-77
2023/11/29 11:12:43;;;;;;;2.33;2.13;;;4.10;52.10;;;;;;4975679;28;20047;-76
2023/11/29 11:15:14;;;;;;;3.13;2.30;;;4.00;51.20;;;;;;4976605;28;20065;-77
2023/11/29 11:17:42;;;;;;;2.95;2.17;;;4.20;51.50;;;;;;4976288;28;20084;-76
2023/11/29 11:20:09;;;;;;;2.55;2.03;;;4.50;50.70;;;;;;4976088;28;20068;-75
2023/11/29 11:22:41;;;;;;;2.78;2.20;;;4.60;50.00;;;;;;4976493;28;20435;-76
2023/11/29 11:25:15;;;;;;;2.55;2.35;;;4.80;50.50;;;;;;4976511;28;20173;-76
2023/11/29 11:27:43;;;;;;;3.95;2.15;;;5.10;54.00;;;;;;4993691;28;20025;-75
2023/11/29 11:30:15;;;;;;;2.80;2.05;;;5.60;51.60;;;;;;4975699;28;20093;-77
2023/11/29 11:32:40;;;;;;;2.28;1.77;;;6.30;48.60;;;;;;4993687;28;20042;-77
2023/11/29 11:35:35;;;;;;;2.53;1.90;;;8.00;45.90;;;;;;4993696;28;20023;-75
2023/11/29 11:38:05;;;;;;;3.25;1.65;;;9.70;38.90;;;;;;4993922;28;20022;-76
2023/11/29 11:40:32;;;;;;;4.03;1.23;;;10.70;35.00;;;;;;4975619;28;20054;-74
2023/11/29 11:42:58;;;;;;;2.05;1.35;;;10.50;34.50;;;;;;4976293;28;20038;-75
2023/11/29 11:45:29;;;;;;;1.33;1.23;;;10.80;33.50;;;;;;4976127;28;20026;-75
2023/11/29 11:47:55;;;;;;;2.28;1.73;;;11.10;33.40;;;;;;4976040;28;20026;-74
2023/11/29 11:50:20;;;;;;;1.60;1.50;;;11.40;32.40;;;;;;4975363;28;20092;-74
2023/11/29 11:52:46;;;;;;;1.77;1.42;;;11.40;33.00;;;;;;4976031;28;20113;-76
2023/11/29 11:55:15;;;;;;;1.63;1.52;;;12.20;31.00;;;;;;4992840;28;20028;-75
2023/11/29 11:57:41;;;;;;;3.20;1.77;;;12.80;28.50;;;;;;4975821;28;20363;-75
2023/11/29 12:00:09;;;;;;;2.38;1.60;;;12.60;29.30;;;;;;4975927;28;20029;-76
2023/11/29 12:02:36;;;;;;;4.20;1.60;;;12.80;30.10;;;;;;4976288;28;20030;-75
2023/11/29 12:05:05;;;;;;;1.63;1.52;;;13.00;30.30;;;;;;4976097;28;20019;-74
2023/11/29 12:07:31;;;;;;;3.95;1.75;;;13.70;29.40;;;;;;4975398;28;20026;-75
2023/11/29 12:09:59;;;;;;;1.60;1.50;;;14.20;27.50;;;;;;4993143;28;20471;-74
2023/11/29 12:12:28;;;;;;;3.20;1.90;;;14.30;27.80;;;;;;4975418;28;20042;-76
2023/11/29 12:14:54;;;;;;;1.70;1.60;;;14.40;28.10;;;;;;4976011;28;20038;-75
2023/11/29 12:17:20;;;;;;;1.45;1.35;;;15.40;26.50;;;;;;4975777;28;20053;-76
2023/11/29 12:19:47;;;;;;;2.05;1.70;;;14.70;26.10;;;;;;4992750;28;20404;-75
2023/11/29 12:22:17;;;;;;;2.08;1.70;;;15.10;26.30;;;;;;4959255;28;20034;-76
2023/11/29 12:24:47;;;;;;;2.40;1.80;;;16.10;25.00;;;;;;4976154;28;20054;-79
2023/11/29 12:27:17;;;;;;;2.78;1.90;;;16.30;23.60;;;;;;4975905;28;20022;-77
2023/11/29 12:29:46;;;;;;;1.55;1.45;;;16.80;23.60;;;;;;4975649;28;20035;-77
2023/11/29 12:32:13;;;;;;;1.98;1.77;;;17.30;23.10;;;;;;4975495;28;20463;-77
2023/11/29 12:34:41;;;;;;;2.58;1.80;;;17.90;21.10;;;;;;4959822;28;20039;-77
2023/11/29 12:37:15;;;;;;;4.55;1.70;;;18.00;19.30;;;;;;4975926;28;20038;-77
2023/11/29 12:39:42;;;;;;;2.10;1.52;;;16.80;21.90;;;;;;4975667;28;20105;-76
2023/11/29 12:42:09;;;;;;;1.48;1.38;;;18.00;21.00;;;;;;4978977;28;20348;-76
2023/11/29 12:44:35;;;;;;;1.27;1.17;;;19.50;18.10;;;;;;4979483;28;20034;-76